Terminal Aerodrome Forecast
Issued by NWS

Home | Current Version | Previous Version | Text Only | Print | Product List | Glossary On
Versions: 1 2 3 4 5 6 7 8 9 10 11 12 13 14 15 16 17 18 19 20 21 22 23 24 25 26 27 28 29 30 31 32 33 34 35 36 37 38 39 40 41 42
000
FTUS43 KDMX 111125
TAFFOD
TAF
KFOD 111125Z 1112/1212 23005KT P6SM SKC
     FM111400 30018G28KT P6SM SCT025 BKN100
     FM111700 32022G35KT P6SM SCT007 BKN020
     FM120000 34015G25KT P6SM BKN035=

USA.gov is the U.S. government's official web portal to all federal, state and local government web resources and services.